Time;durP1;ratioP1;P1;durP2;ratioP2;P2;SDS_P1;SDS_P2;PMS_P1;PMS_P2;Temp;Humidity;BMP_temperature;BMP_pressure;BME280_temperature;BME280_humidity;BME280_pressure;Samples;Min_cycle;Max_cycle;Signal;HPM_P1;HPM_P2
2022/04/11 00:01:51;;;;;;;4.93;2.42;;;2.60;99.90;;;;;;5098179;27;20035;-85
2022/04/11 00:04:17;;;;;;;4.75;2.20;;;2.50;99.90;;;;;;5106104;27;20027;-86
2022/04/11 00:06:43;;;;;;;5.82;2.70;;;2.40;99.90;;;;;;5101332;27;20279;-87
2022/04/11 00:09:08;;;;;;;4.95;2.08;;;2.40;99.90;;;;;;5104466;27;20080;-87
2022/04/11 00:11:34;;;;;;;4.68;2.22;;;2.20;99.90;;;;;;5133189;27;20066;-87
2022/04/11 00:14:01;;;;;;;5.57;3.13;;;2.20;99.90;;;;;;5112009;27;20567;-86
2022/04/11 00:16:27;;;;;;;4.03;2.20;;;2.20;99.90;;;;;;5126306;27;20405;-86
2022/04/11 00:18:53;;;;;;;3.78;2.13;;;2.20;99.90;;;;;;5109730;27;20031;-86
2022/04/11 00:21:18;;;;;;;4.57;2.22;;;2.10;99.90;;;;;;5133616;27;20035;-86
2022/04/11 00:23:44;;;;;;;6.35;2.10;;;2.10;99.90;;;;;;5110116;27;20492;-86
2022/04/11 00:26:09;;;;;;;5.57;2.58;;;2.10;99.90;;;;;;5127910;27;20039;-86
2022/04/11 00:28:35;;;;;;;5.68;2.28;;;2.10;99.90;;;;;;5106944;27;20072;-86
2022/04/11 00:31:00;;;;;;;6.07;2.60;;;2.20;99.90;;;;;;5119159;27;20035;-86
2022/04/11 00:33:26;;;;;;;4.97;2.67;;;2.20;99.90;;;;;;5109814;27;20034;-85
2022/04/11 00:35:51;;;;;;;3.85;2.40;;;2.20;99.90;;;;;;5128556;27;20110;-85
2022/04/11 00:38:17;;;;;;;5.03;2.10;;;2.10;99.90;;;;;;5133861;27;20044;-85
2022/04/11 00:40:42;;;;;;;6.57;2.75;;;2.10;99.90;;;;;;5097417;27;20050;-85
2022/04/11 00:43:08;;;;;;;4.53;2.60;;;2.10;99.90;;;;;;5118937;27;20042;-84
2022/04/11 00:45:34;;;;;;;3.50;2.50;;;2.10;99.90;;;;;;5122880;27;20061;-84
2022/04/11 00:47:59;;;;;;;6.32;2.70;;;2.70;99.90;;;;;;5109431;27;20086;-84
2022/04/11 00:50:25;;;;;;;4.85;2.40;;;2.10;99.90;;;;;;5119326;27;20495;-84
2022/04/11 00:52:54;;;;;;;4.72;2.20;;;2.00;99.90;;;;;;5115231;27;20034;-84
2022/04/11 00:55:22;;;;;;;4.75;2.83;;;1.90;99.90;;;;;;5101280;27;20035;-84
2022/04/11 00:57:48;;;;;;;4.07;2.70;;;1.90;99.90;;;;;;5097107;28;20039;-84
2022/04/11 01:00:14;;;;;;;5.35;2.92;;;1.90;99.90;;;;;;5113762;27;20043;-84
2022/04/11 01:02:40;;;;;;;6.35;3.00;;;2.00;99.90;;;;;;5100907;28;20117;-84
2022/04/11 01:05:07;;;;;;;6.97;3.13;;;2.00;99.90;;;;;;5127856;27;20560;-84
2022/04/11 01:07:34;;;;;;;4.18;2.50;;;1.90;99.90;;;;;;5124837;27;20423;-84
2022/04/11 01:10:00;;;;;;;5.28;2.72;;;1.90;99.90;;;;;;5119749;27;20045;-85
2022/04/11 01:12:26;;;;;;;4.47;2.72;;;1.90;99.90;;;;;;5114142;27;20118;-84
2022/04/11 01:14:51;;;;;;;6.20;2.60;;;1.90;99.90;;;;;;5099622;28;20043;-84
2022/04/11 01:17:17;;;;;;;5.85;3.42;;;1.90;99.90;;;;;;5097216;28;20123;-84
2022/04/11 01:19:42;;;;;;;6.15;2.97;;;1.90;99.90;;;;;;5096997;28;20043;-84
2022/04/11 01:22:08;;;;;;;5.53;3.22;;;1.90;99.90;;;;;;5108456;27;20099;-85
2022/04/11 01:24:36;;;;;;;4.82;3.20;;;1.90;99.90;;;;;;5131651;27;20405;-84
2022/04/11 01:27:02;;;;;;;5.60;3.08;;;1.80;99.90;;;;;;5109270;27;20031;-85
2022/04/11 01:29:28;;;;;;;8.88;3.03;;;1.80;99.90;;;;;;5101099;27;20039;-84
2022/04/11 01:31:54;;;;;;;4.78;2.90;;;1.70;99.90;;;;;;5118007;27;20468;-84
2022/04/11 01:34:19;;;;;;;7.20;3.40;;;1.70;99.90;;;;;;5128210;27;20086;-85
2022/04/11 01:36:45;;;;;;;8.00;3.33;;;1.70;99.90;;;;;;5109062;27;20118;-85
2022/04/11 01:39:10;;;;;;;4.90;2.90;;;1.60;99.90;;;;;;5100550;27;20046;-84
2022/04/11 01:41:36;;;;;;;6.50;3.40;;;1.60;99.90;;;;;;5100011;27;20034;-85
2022/04/11 01:44:02;;;;;;;5.40;2.63;;;1.50;99.90;;;;;;5101490;27;20042;-85
2022/04/11 01:46:27;;;;;;;5.93;3.05;;;1.50;99.90;;;;;;5129787;27;20031;-84
2022/04/11 01:48:53;;;;;;;4.00;2.80;;;1.40;99.90;;;;;;5137384;27;20466;-85
2022/04/11 01:51:18;;;;;;;7.68;2.60;;;1.40;99.90;;;;;;5127873;27;20042;-85
2022/04/11 01:53:44;;;;;;;4.38;3.05;;;1.40;99.90;;;;;;5101583;27;20054;-85
2022/04/11 01:56:10;;;;;;;9.10;3.38;;;1.50;99.90;;;;;;5104555;27;20126;-85
2022/04/11 01:58:35;;;;;;;5.75;3.15;;;1.50;99.90;;;;;;5100461;27;20407;-85
2022/04/11 02:01:01;;;;;;;5.95;3.90;;;1.50;99.90;;;;;;5117311;27;20039;-85
2022/04/11 02:03:26;;;;;;;5.70;2.90;;;1.40;99.90;;;;;;5120838;27;20030;-85
2022/04/11 02:05:53;;;;;;;5.75;2.80;;;1.60;99.90;;;;;;5104603;27;20031;-85
2022/04/11 02:08:19;;;;;;;4.97;2.92;;;1.40;99.90;;;;;;5119280;27;20539;-85
2022/04/11 02:10:46;;;;;;;5.95;3.20;;;1.40;99.90;;;;;;5137207;27;20130;-86
2022/04/11 02:13:11;;;;;;;5.70;2.50;;;1.40;99.90;;;;;;5107498;27;20045;-86
2022/04/11 02:15:38;;;;;;;8.32;2.88;;;1.40;99.90;;;;;;5120711;27;20035;-86
2022/04/11 02:18:03;;;;;;;3.67;2.30;;;1.40;99.90;;;;;;5122334;27;20480;-87
2022/04/11 02:20:29;;;;;;;3.40;2.13;;;1.30;99.90;;;;;;5137846;27;20038;-86
2022/04/11 02:22:57;;;;;;;3.03;2.10;;;1.30;99.90;;;;;;5120209;27;20086;-87
2022/04/11 02:25:25;;;;;;;3.47;1.95;;;1.20;99.90;;;;;;5119548;27;20034;-86
2022/04/11 02:27:54;;;;;;;4.18;2.10;;;1.10;99.90;;;;;;5108225;27;20121;-87
2022/04/11 02:30:22;;;;;;;3.90;2.40;;;1.10;99.90;;;;;;5107216;27;20066;-86
2022/04/11 02:32:49;;;;;;;3.50;2.28;;;1.10;99.90;;;;;;5126766;27;20345;-86
2022/04/11 02:35:14;;;;;;;8.50;2.33;;;1.10;99.90;;;;;;5128380;27;20035;-86
2022/04/11 02:37:40;;;;;;;6.60;2.67;;;1.10;99.90;;;;;;5132732;27;20082;-86
2022/04/11 02:40:07;;;;;;;4.60;2.92;;;1.00;99.90;;;;;;5112662;27;20408;-86
2022/04/11 02:42:33;;;;;;;7.95;2.30;;;1.10;99.90;;;;;;5099955;27;20031;-85
2022/04/11 02:44:59;;;;;;;7.45;2.33;;;1.10;99.90;;;;;;5131671;27;20408;-86
2022/04/11 02:47:25;;;;;;;5.72;2.50;;;1.10;99.90;;;;;;5115244;27;20034;-86
2022/04/11 02:49:50;;;;;;;6.68;2.60;;;1.00;99.90;;;;;;5099489;27;20098;-85
2022/04/11 02:52:16;;;;;;;6.38;2.70;;;1.00;99.90;;;;;;5116911;27;20031;-85
2022/04/11 02:54:42;;;;;;;5.80;2.60;;;1.00;99.90;;;;;;5134746;27;20027;-85
2022/04/11 02:57:08;;;;;;;4.60;2.63;;;1.00;99.90;;;;;;5137210;27;20046;-85
2022/04/11 02:59:35;;;;;;;4.60;2.50;;;0.90;99.90;;;;;;5136590;27;20045;-85
2022/04/11 03:02:02;;;;;;;8.10;2.47;;;0.80;99.90;;;;;;5112526;27;20114;-85
2022/04/11 03:04:28;;;;;;;4.60;2.25;;;0.70;99.90;;;;;;5101194;27;20051;-85
2022/04/11 03:06:55;;;;;;;3.03;2.20;;;0.70;99.90;;;;;;5117283;27;20041;-85
2022/04/11 03:09:20;;;;;;;4.75;2.58;;;0.80;99.90;;;;;;5117215;27;20038;-85
2022/04/11 03:11:46;;;;;;;4.78;2.40;;;0.80;99.90;;;;;;5105916;27;20027;-85
2022/04/11 03:14:12;;;;;;;5.40;2.50;;;0.80;99.90;;;;;;5107282;27;20038;-85
2022/04/11 03:16:37;;;;;;;5.00;2.58;;;0.80;99.90;;;;;;5118333;27;20027;-85
2022/04/11 03:19:04;;;;;;;5.10;2.47;;;0.90;99.90;;;;;;5122594;27;20109;-85
2022/04/11 03:21:29;;;;;;;4.78;2.75;;;0.90;99.90;;;;;;5135797;27;20039;-85
2022/04/11 03:23:55;;;;;;;3.97;2.40;;;0.90;99.90;;;;;;5112945;27;20038;-85
2022/04/11 03:26:20;;;;;;;4.67;2.70;;;0.90;99.90;;;;;;5100663;27;20049;-85
2022/04/11 03:28:46;;;;;;;4.97;2.70;;;1.00;99.90;;;;;;5116397;27;20045;-84
2022/04/11 03:31:12;;;;;;;5.93;3.13;;;1.00;99.90;;;;;;5106456;27;20078;-85
2022/04/11 03:33:37;;;;;;;3.77;2.27;;;1.00;99.90;;;;;;5106018;27;20114;-85
2022/04/11 03:36:03;;;;;;;4.00;2.47;;;0.90;99.90;;;;;;5117807;27;20038;-84
2022/04/11 03:38:29;;;;;;;3.75;2.58;;;1.00;99.90;;;;;;5136253;27;20091;-84
2022/04/11 03:40:55;;;;;;;6.13;2.90;;;1.10;99.90;;;;;;5107467;27;20067;-84
2022/04/11 03:43:20;;;;;;;6.23;2.87;;;1.10;99.90;;;;;;5130389;27;20118;-84
2022/04/11 03:45:46;;;;;;;5.37;2.80;;;1.20;99.90;;;;;;5105455;28;20425;-84
2022/04/11 03:48:11;;;;;;;5.70;2.97;;;1.30;99.90;;;;;;5115175;27;20643;-84
2022/04/11 03:50:37;;;;;;;4.87;2.67;;;1.30;99.90;;;;;;5103250;27;20544;-85
2022/04/11 03:53:03;;;;;;;5.67;2.97;;;1.30;99.90;;;;;;5103418;27;20031;-85
2022/04/11 03:55:29;;;;;;;5.20;2.83;;;1.40;99.90;;;;;;5130693;27;20088;-85
2022/04/11 03:57:54;;;;;;;4.80;2.80;;;1.40;99.90;;;;;;5114889;27;20035;-84
2022/04/11 04:00:20;;;;;;;8.73;3.03;;;1.40;99.90;;;;;;5123483;27;20060;-84
2022/04/11 04:02:45;;;;;;;5.57;3.23;;;1.50;99.90;;;;;;5114736;27;20497;-84
2022/04/11 04:05:11;;;;;;;6.00;3.00;;;1.50;99.90;;;;;;5130156;27;20407;-84
2022/04/11 04:07:37;;;;;;;6.65;2.85;;;1.60;99.90;;;;;;5109677;27;20054;-83
2022/04/11 04:10:04;;;;;;;5.32;3.17;;;1.60;99.90;;;;;;5134242;27;20034;-83
2022/04/11 04:12:30;;;;;;;6.73;3.10;;;1.60;99.90;;;;;;5135543;27;20101;-82
2022/04/11 04:14:56;;;;;;;5.05;3.13;;;1.60;99.90;;;;;;5120351;27;20110;-83
2022/04/11 04:17:21;;;;;;;5.93;3.43;;;1.60;99.90;;;;;;5114529;27;20171;-83
2022/04/11 04:19:47;;;;;;;4.68;3.00;;;1.60;99.90;;;;;;5114398;27;20035;-83
2022/04/11 04:22:12;;;;;;;6.90;2.97;;;1.70;99.90;;;;;;5122526;27;20030;-83
2022/04/11 04:24:38;;;;;;;4.70;3.20;;;1.70;99.90;;;;;;5125464;27;20041;-82
2022/04/11 04:27:07;;;;;;;5.37;2.90;;;1.70;99.90;;;;;;5120177;27;20412;-83
2022/04/11 04:29:34;;;;;;;5.28;2.80;;;1.70;99.90;;;;;;5101114;27;20214;-82
2022/04/11 04:31:59;;;;;;;4.07;2.73;;;1.70;99.90;;;;;;5116704;27;20039;-83
2022/04/11 04:34:26;;;;;;;4.77;3.13;;;1.80;99.90;;;;;;5108234;27;20039;-83
2022/04/11 04:36:53;;;;;;;4.93;3.40;;;1.70;99.90;;;;;;5105876;27;20043;-83
2022/04/11 04:39:18;;;;;;;4.60;3.00;;;1.80;99.90;;;;;;5120894;27;20150;-84
2022/04/11 04:41:44;;;;;;;8.27;3.30;;;1.80;99.90;;;;;;5105082;27;20110;-84
2022/04/11 04:44:09;;;;;;;5.53;2.95;;;1.80;99.90;;;;;;5102131;27;20031;-85
2022/04/11 04:46:35;;;;;;;4.57;3.08;;;1.80;99.90;;;;;;5102105;27;20193;-85
2022/04/11 04:49:02;;;;;;;4.50;3.30;;;1.80;99.90;;;;;;5129060;27;20095;-85
2022/04/11 04:51:28;;;;;;;4.75;3.55;;;1.90;99.90;;;;;;5104262;27;20077;-85
2022/04/11 04:53:54;;;;;;;5.30;3.13;;;1.80;99.90;;;;;;5133955;27;20408;-85
2022/04/11 04:56:20;;;;;;;5.60;3.47;;;1.90;99.90;;;;;;5116705;27;20446;-85
2022/04/11 04:58:45;;;;;;;4.88;3.28;;;1.90;99.90;;;;;;5110395;27;20043;-85
2022/04/11 05:01:12;;;;;;;4.93;3.20;;;1.90;99.90;;;;;;5127736;27;20116;-84
2022/04/11 05:03:38;;;;;;;5.97;3.42;;;1.90;99.90;;;;;;5102849;28;20035;-85
2022/04/11 05:06:03;;;;;;;5.82;3.70;;;1.90;99.90;;;;;;5114286;28;20041;-85
2022/04/11 05:08:29;;;;;;;6.03;3.65;;;2.00;99.90;;;;;;5097163;28;20083;-85
2022/04/11 05:10:54;;;;;;;6.55;3.88;;;2.00;99.90;;;;;;5097858;28;20035;-85
2022/04/11 05:13:20;;;;;;;5.97;3.42;;;2.10;99.90;;;;;;5114237;27;20047;-85
2022/04/11 05:15:46;;;;;;;4.80;3.50;;;2.10;99.90;;;;;;5134357;27;20043;-85
2022/04/11 05:18:13;;;;;;;4.75;3.50;;;2.10;99.90;;;;;;5130076;27;20043;-86
2022/04/11 05:20:39;;;;;;;7.85;3.60;;;2.10;99.90;;;;;;5117253;27;20038;-86
2022/04/11 05:23:05;;;;;;;6.72;3.90;;;2.20;99.90;;;;;;5132602;27;20054;-86
2022/04/11 05:25:30;;;;;;;7.63;3.50;;;2.20;99.90;;;;;;5120173;27;20023;-85
2022/04/11 05:27:56;;;;;;;6.22;3.35;;;2.20;99.90;;;;;;5132415;27;20121;-85
2022/04/11 05:30:22;;;;;;;7.35;3.72;;;2.20;99.90;;;;;;5108671;27;20118;-85
2022/04/11 05:32:47;;;;;;;6.43;3.47;;;2.30;99.90;;;;;;5129011;27;20092;-85
2022/04/11 05:35:13;;;;;;;8.07;3.30;;;2.30;99.90;;;;;;5107043;27;20559;-84
2022/04/11 05:37:38;;;;;;;4.63;3.33;;;2.40;99.90;;;;;;5124501;28;20055;-85
2022/04/11 05:40:05;;;;;;;6.45;3.67;;;2.40;99.90;;;;;;5113421;27;20117;-84
2022/04/11 05:42:31;;;;;;;6.97;3.55;;;2.50;99.90;;;;;;5100744;27;20484;-85
2022/04/11 05:44:57;;;;;;;4.97;3.03;;;2.50;99.90;;;;;;5113798;27;20118;-84
2022/04/11 05:47:22;;;;;;;4.95;3.45;;;2.50;99.90;;;;;;5116157;27;20035;-85
2022/04/11 05:49:48;;;;;;;9.27;3.47;;;2.60;99.90;;;;;;5106918;28;20159;-84
2022/04/11 05:52:18;;;;;;;7.55;3.80;;;2.60;99.90;;;;;;5095468;28;20513;-85
2022/04/11 05:54:44;;;;;;;6.40;3.42;;;2.60;99.90;;;;;;5118609;27;20034;-85
2022/04/11 05:57:10;;;;;;;5.00;3.33;;;2.80;99.90;;;;;;5130050;27;20038;-85
2022/04/11 05:59:36;;;;;;;7.55;3.28;;;2.70;99.90;;;;;;5108353;27;20039;-84
2022/04/11 06:02:02;;;;;;;8.23;3.58;;;2.80;99.90;;;;;;5130788;27;20070;-85
2022/04/11 06:04:27;;;;;;;5.93;2.95;;;2.80;99.90;;;;;;5113188;27;20332;-84
2022/04/11 06:06:53;;;;;;;7.53;3.65;;;2.90;99.90;;;;;;5129419;27;20184;-85
2022/04/11 06:09:18;;;;;;;5.35;3.40;;;2.90;99.90;;;;;;5109718;27;20034;-84
2022/04/11 06:11:44;;;;;;;7.25;3.58;;;2.90;99.90;;;;;;5110396;27;20047;-84
2022/04/11 06:14:10;;;;;;;5.45;3.47;;;2.90;99.90;;;;;;5126874;27;20031;-84
2022/04/11 06:16:35;;;;;;;6.40;3.45;;;3.00;99.90;;;;;;5101626;27;20038;-84
2022/04/11 06:19:01;;;;;;;8.85;3.38;;;3.00;99.90;;;;;;5124532;27;20535;-85
2022/04/11 06:21:26;;;;;;;7.15;3.25;;;3.10;99.90;;;;;;5123995;27;20035;-84
2022/04/11 06:23:52;;;;;;;8.43;3.72;;;3.10;99.90;;;;;;5128939;27;20055;-85
2022/04/11 06:26:17;;;;;;;4.90;3.45;;;3.20;99.90;;;;;;5126318;27;20110;-85
2022/04/11 06:28:43;;;;;;;6.95;3.55;;;3.20;99.90;;;;;;5130094;27;20035;-85
2022/04/11 06:31:15;;;;;;;11.13;3.88;;;3.20;99.90;;;;;;5108027;27;20039;-85
2022/04/11 06:33:41;;;;;;;5.68;3.60;;;3.30;99.90;;;;;;5120932;27;20058;-85
2022/04/11 06:36:07;;;;;;;7.60;3.67;;;3.30;99.90;;;;;;5128272;27;20500;-86
2022/04/11 06:38:33;;;;;;;4.55;3.28;;;3.40;99.90;;;;;;5120688;27;20035;-86
2022/04/11 06:40:59;;;;;;;5.82;2.78;;;3.40;99.90;;;;;;5115022;27;20091;-85
2022/04/11 06:43:25;;;;;;;4.05;2.92;;;3.50;99.90;;;;;;5131186;27;20027;-85
2022/04/11 06:45:51;;;;;;;5.80;3.10;;;3.60;99.90;;;;;;5105925;27;20031;-85
2022/04/11 06:48:16;;;;;;;5.63;3.15;;;3.60;99.90;;;;;;5124929;27;20038;-85
2022/04/11 06:50:43;;;;;;;5.22;2.88;;;3.70;99.90;;;;;;5099934;27;20058;-85
2022/04/11 06:53:09;;;;;;;6.43;3.00;;;3.80;99.90;;;;;;5110341;27;20034;-85
2022/04/11 06:55:35;;;;;;;7.38;3.40;;;3.90;99.90;;;;;;5119496;27;20031;-85
2022/04/11 06:58:01;;;;;;;5.07;3.35;;;4.00;99.90;;;;;;5125396;27;20075;-86
2022/04/11 07:00:27;;;;;;;5.32;3.10;;;4.00;99.90;;;;;;5120054;27;20043;-85
2022/04/11 07:02:53;;;;;;;5.43;3.13;;;4.10;99.90;;;;;;5111141;27;20026;-85
2022/04/11 07:05:18;;;;;;;6.18;2.50;;;4.20;99.90;;;;;;5131545;27;20038;-85
2022/04/11 07:07:44;;;;;;;5.82;2.78;;;4.30;99.90;;;;;;5125418;27;20049;-85
2022/04/11 07:10:09;;;;;;;5.95;2.30;;;4.40;99.90;;;;;;5129149;27;20153;-84
2022/04/11 07:12:42;;;;;;;5.68;2.38;;;4.50;99.90;;;;;;5123566;27;20125;-85
2022/04/11 07:15:08;;;;;;;7.00;2.33;;;4.60;99.90;;;;;;5115809;27;20039;-85
2022/04/11 07:17:34;;;;;;;5.57;2.35;;;4.70;99.90;;;;;;5117291;27;20118;-85
2022/04/11 07:20:01;;;;;;;6.13;2.75;;;4.80;99.90;;;;;;5106122;27;20039;-84
2022/04/11 07:22:27;;;;;;;5.32;2.22;;;4.90;99.90;;;;;;5116577;27;20476;-85
2022/04/11 07:24:53;;;;;;;5.35;2.45;;;5.00;99.90;;;;;;5146562;27;20031;-85
2022/04/11 07:27:19;;;;;;;5.57;2.40;;;5.10;99.90;;;;;;5098968;27;20083;-85
2022/04/11 07:29:45;;;;;;;6.00;2.70;;;5.20;99.90;;;;;;5105139;27;20081;-85
2022/04/11 07:32:10;;;;;;;7.15;2.92;;;5.30;99.90;;;;;;5110631;27;20046;-85
2022/04/11 07:34:36;;;;;;;5.75;2.38;;;5.40;99.90;;;;;;5122172;27;20050;-85
2022/04/11 07:37:02;;;;;;;5.10;2.60;;;5.50;99.90;;;;;;5115616;27;20038;-85
2022/04/11 07:39:29;;;;;;;5.10;2.80;;;5.50;99.90;;;;;;5137168;27;20053;-85
2022/04/11 07:41:55;;;;;;;6.18;2.42;;;5.60;99.90;;;;;;5136335;27;20117;-85
2022/04/11 07:44:21;;;;;;;7.35;3.17;;;5.70;99.90;;;;;;5129952;27;20119;-84
2022/04/11 07:46:47;;;;;;;3.63;2.40;;;5.80;99.90;;;;;;5106338;27;20037;-85
2022/04/11 07:49:12;;;;;;;5.75;2.75;;;5.90;99.90;;;;;;5128509;27;20039;-85
2022/04/11 07:51:38;;;;;;;5.10;2.70;;;6.00;99.90;;;;;;5128134;27;20039;-85
2022/04/11 07:54:03;;;;;;;7.65;2.47;;;6.10;99.90;;;;;;5117395;27;20038;-85
2022/04/11 07:56:29;;;;;;;4.20;2.38;;;6.20;99.90;;;;;;5112041;27;20030;-85
2022/04/11 07:58:56;;;;;;;3.92;2.10;;;6.40;99.90;;;;;;5112930;27;20400;-85
2022/04/11 08:01:22;;;;;;;6.97;2.20;;;6.50;99.90;;;;;;5132378;27;20551;-85
2022/04/11 08:03:48;;;;;;;4.65;2.20;;;6.50;99.90;;;;;;5118949;27;20054;-84
2022/04/11 08:06:14;;;;;;;6.88;2.95;;;6.60;99.90;;;;;;5132655;27;20445;-85
2022/04/11 08:08:47;;;;;;;7.18;2.22;;;6.60;99.90;;;;;;5135151;27;20035;-84
2022/04/11 08:11:14;;;;;;;8.63;2.70;;;6.70;99.90;;;;;;5116935;27;20070;-84
2022/04/11 08:13:40;;;;;;;6.65;2.53;;;6.90;99.90;;;;;;5118061;27;20046;-84
2022/04/11 08:16:06;;;;;;;6.50;2.45;;;7.00;99.90;;;;;;5121491;27;20044;-85
2022/04/11 08:18:31;;;;;;;6.78;1.98;;;7.20;99.90;;;;;;5131860;27;20034;-85
2022/04/11 08:20:57;;;;;;;9.43;2.88;;;7.40;99.90;;;;;;5119513;27;20039;-84
2022/04/11 08:23:22;;;;;;;7.68;2.33;;;7.60;99.90;;;;;;5117919;27;20045;-84
2022/04/11 08:25:49;;;;;;;5.97;2.60;;;7.70;99.90;;;;;;5116486;27;20066;-85
2022/04/11 08:28:15;;;;;;;8.23;2.67;;;8.00;99.90;;;;;;5130600;27;20038;-84
2022/04/11 08:30:41;;;;;;;6.63;2.63;;;8.30;99.90;;;;;;5134942;27;20038;-85
2022/04/11 08:33:07;;;;;;;6.63;2.40;;;8.40;99.90;;;;;;5134051;27;20039;-86
2022/04/11 08:35:32;;;;;;;8.80;2.70;;;8.60;99.90;;;;;;5134633;27;20049;-85
2022/04/11 08:37:58;;;;;;;6.93;2.30;;;8.60;99.90;;;;;;5134716;27;20066;-85
2022/04/11 08:40:23;;;;;;;6.93;2.30;;;8.60;99.90;;;;;;5134670;27;20034;-85
2022/04/11 08:42:50;;;;;;;4.22;2.20;;;8.60;99.90;;;;;;5135031;27;20041;-85
2022/04/11 08:45:20;;;;;;;6.40;2.60;;;8.60;99.90;;;;;;5128581;27;20035;-85
2022/04/11 08:47:48;;;;;;;5.20;2.22;;;8.70;99.90;;;;;;5134727;27;20458;-85
2022/04/11 08:50:14;;;;;;;7.25;2.17;;;8.80;99.90;;;;;;5131599;27;20065;-85
2022/04/11 08:52:40;;;;;;;4.63;1.92;;;9.00;99.90;;;;;;5125578;27;20042;-85
2022/04/11 08:55:07;;;;;;;13.52;2.72;;;9.10;99.90;;;;;;5133765;27;20043;-85
2022/04/11 08:57:35;;;;;;;7.57;2.45;;;9.30;99.90;;;;;;5135386;27;20042;-85
2022/04/11 09:00:23;;;;;;;7.22;2.47;;;9.40;99.90;;;;;;5103886;27;20088;-86
2022/04/11 09:02:48;;;;;;;6.78;2.33;;;9.60;99.90;;;;;;5125522;27;20037;-85
2022/04/11 09:05:25;;;;;;;5.07;2.10;;;9.70;99.90;;;;;;5135898;27;20023;-85
2022/04/11 09:07:55;;;;;;;6.28;2.40;;;9.80;99.90;;;;;;5119706;27;20035;-85
2022/04/11 09:10:48;;;;;;;4.00;2.30;;;9.90;99.90;;;;;;5119854;27;20556;-85
2022/04/11 09:13:13;;;;;;;5.85;2.30;;;10.00;99.90;;;;;;5131402;27;20046;-85
2022/04/11 09:15:41;;;;;;;7.63;2.40;;;10.10;99.90;;;;;;5134357;27;20041;-85
2022/04/11 09:18:07;;;;;;;5.05;2.10;;;10.20;99.90;;;;;;5131513;27;20717;-86
2022/04/11 09:20:33;;;;;;;4.32;2.10;;;10.20;99.90;;;;;;5134514;27;20114;-85
2022/04/11 09:22:59;;;;;;;7.28;2.35;;;10.30;99.90;;;;;;5134369;27;20052;-86
2022/04/11 09:25:31;;;;;;;3.88;1.90;;;10.40;99.90;;;;;;5102579;27;20031;-85
2022/04/11 09:28:10;;;;;;;4.25;2.08;;;10.50;99.90;;;;;;5133983;27;20117;-85
2022/04/11 09:30:38;;;;;;;4.47;1.73;;;10.60;99.90;;;;;;5138888;27;20062;-86
2022/04/11 09:33:08;;;;;;;4.25;1.70;;;10.60;99.90;;;;;;5151770;27;20060;-86
2022/04/11 09:35:47;;;;;;;3.15;1.33;;;10.70;99.90;;;;;;5131391;27;20259;-85
2022/04/11 09:38:13;;;;;;;3.75;1.70;;;10.80;99.90;;;;;;5120424;27;20049;-86
2022/04/11 09:40:53;;;;;;;5.05;2.03;;;10.90;99.90;;;;;;5117117;27;20031;-85
2022/04/11 09:43:27;;;;;;;3.97;1.80;;;11.00;99.90;;;;;;5113825;27;20142;-85
2022/04/11 09:45:53;;;;;;;4.95;1.98;;;11.00;99.90;;;;;;5120689;27;20030;-86
2022/04/11 09:48:21;;;;;;;4.95;1.92;;;11.10;99.90;;;;;;5127912;27;20070;-86
2022/04/11 09:50:48;;;;;;;4.22;1.77;;;11.20;99.90;;;;;;5107829;27;20069;-85
2022/04/11 09:53:19;;;;;;;5.03;1.80;;;11.30;99.90;;;;;;5114537;27;20038;-85
2022/04/11 09:55:54;;;;;;;3.03;1.60;;;11.40;99.90;;;;;;5125089;27;20054;-86
2022/04/11 09:58:21;;;;;;;5.93;2.15;;;11.50;99.90;;;;;;5117646;27;20047;-86
2022/04/11 10:00:47;;;;;;;4.65;1.88;;;11.60;99.90;;;;;;5130749;27;20117;-86
2022/04/11 10:03:13;;;;;;;4.75;2.10;;;11.70;99.90;;;;;;5129501;27;20050;-86
2022/04/11 10:05:40;;;;;;;3.00;1.60;;;11.80;99.90;;;;;;5135793;27;20026;-86
2022/04/11 10:08:07;;;;;;;4.30;1.75;;;11.80;99.90;;;;;;5150561;27;20137;-86
2022/04/11 10:10:35;;;;;;;4.60;1.70;;;11.90;99.90;;;;;;5134299;27;20125;-86
2022/04/11 10:13:02;;;;;;;5.95;1.58;;;12.00;99.90;;;;;;5128541;27;20038;-86
2022/04/11 10:15:27;;;;;;;7.07;2.25;;;12.10;99.90;;;;;;5128939;27;20591;-86
2022/04/11 10:17:56;;;;;;;4.07;1.60;;;12.20;99.90;;;;;;5134009;27;20057;-86
2022/04/11 10:20:30;;;;;;;5.32;1.80;;;12.20;99.90;;;;;;5119490;27;20232;-86
2022/04/11 10:23:10;;;;;;;;;;;12.30;99.90;;;;;;5118923;27;20031;-86
2022/04/11 10:25:48;;;;;;;3.88;1.70;;;12.40;99.90;;;;;;5111749;27;19919;-86
2022/04/11 10:28:18;;;;;;;4.30;1.80;;;12.60;99.90;;;;;;5135695;27;20403;-87
2022/04/11 10:31:01;;;;;;;4.45;1.85;;;12.60;99.90;;;;;;5131519;27;20433;-86
2022/04/11 10:33:59;;;;;;;6.32;1.95;;;12.60;99.90;;;;;;5113297;27;20039;-86
2022/04/11 10:36:30;;;;;;;5.30;1.70;;;12.80;99.90;;;;;;5071270;27;20066;-86
2022/04/11 10:39:14;;;;;;;6.45;1.83;;;12.90;99.90;;;;;;5133037;27;20373;-86
2022/04/11 10:41:58;;;;;;;5.70;2.17;;;13.00;99.90;;;;;;5125110;27;20372;-86
2022/04/11 10:44:35;;;;;;;4.25;2.20;;;13.10;99.90;;;;;;5109230;27;20031;-86
2022/04/11 10:47:12;;;;;;;6.53;2.05;;;13.10;98.40;;;;;;5125507;27;20039;-86
2022/04/11 10:49:50;;;;;;;6.80;2.45;;;13.20;99.90;;;;;;5126694;27;20501;-86
2022/04/11 10:52:36;;;;;;;3.22;2.10;;;13.50;99.90;;;;;;5128701;27;20397;-86
2022/04/11 10:55:09;;;;;;;5.05;2.25;;;13.60;99.90;;;;;;5115116;27;20289;-86
2022/04/11 10:57:52;;;;;;;3.83;2.10;;;13.60;99.90;;;;;;5116413;27;20458;-86
2022/04/11 11:00:22;;;;;;;4.85;2.20;;;13.70;99.90;;;;;;5098853;27;20387;-86
2022/04/11 11:02:48;;;;;;;5.50;2.65;;;13.80;99.90;;;;;;5115889;27;20126;-86
2022/04/11 11:05:30;;;;;;;4.50;2.10;;;13.90;99.90;;;;;;5116047;27;20470;-86
2022/04/11 11:08:17;;;;;;;4.93;2.20;;;14.00;99.90;;;;;;5099031;27;20410;-86
2022/04/11 11:10:54;;;;;;;3.95;2.13;;;13.90;99.90;;;;;;5099312;27;20434;-86
2022/04/11 11:13:35;;;;;;;4.38;2.50;;;14.00;99.90;;;;;;5130651;27;20039;-85
2022/04/11 11:16:21;;;;;;;5.78;2.45;;;14.00;99.90;;;;;;5118963;27;20043;-86
2022/04/11 11:18:50;;;;;;;5.20;2.40;;;14.10;98.40;;;;;;5128607;27;20046;-86
2022/04/11 11:21:48;;;;;;;4.93;2.45;;;14.10;99.90;;;;;;5125882;27;20113;-86
2022/04/11 11:24:15;;;;;;;5.95;2.60;;;14.30;99.90;;;;;;5122187;27;20047;-86
2022/04/11 11:26:54;;;;;;;5.82;2.40;;;14.40;99.90;;;;;;5110433;27;20042;-86
2022/04/11 11:29:30;;;;;;;5.82;2.67;;;14.40;99.70;;;;;;5118314;27;20030;-86
2022/04/11 11:31:59;;;;;;;5.07;2.60;;;14.60;99.60;;;;;;5135731;27;20049;-86
2022/04/11 11:34:27;;;;;;;6.28;2.80;;;14.60;98.30;;;;;;5136095;27;20042;-86
2022/04/11 11:37:00;;;;;;;5.85;2.58;;;14.70;98.40;;;;;;5119177;27;20348;-86
2022/04/11 11:39:27;;;;;;;4.45;2.53;;;14.90;97.10;;;;;;5117814;27;20113;-85
2022/04/11 11:41:59;;;;;;;5.15;2.80;;;14.90;97.40;;;;;;5117968;27;20034;-86
2022/04/11 11:44:24;;;;;;;5.88;2.70;;;14.90;97.40;;;;;;5130778;27;20067;-86
2022/04/11 11:47:03;;;;;;;5.15;2.72;;;14.90;97.30;;;;;;5129081;27;20077;-87
2022/04/11 11:49:43;;;;;;;5.82;2.50;;;15.00;96.20;;;;;;5128039;27;20039;-86
2022/04/11 11:52:20;;;;;;;7.13;2.92;;;15.10;95.80;;;;;;5116322;27;20739;-87
2022/04/11 11:54:52;;;;;;;5.00;2.90;;;15.20;96.20;;;;;;5116198;27;20065;-86
2022/04/11 11:57:25;;;;;;;4.35;2.65;;;15.30;92.70;;;;;;5116245;27;20070;-86
2022/04/11 11:59:53;;;;;;;5.47;2.70;;;15.40;96.40;;;;;;5135331;27;20065;-85
2022/04/11 12:05:22;;;;;;;4.25;2.70;;;15.40;95.00;;;;;;5132208;27;20412;-86
2022/04/11 12:07:49;;;;;;;5.60;2.70;;;15.60;93.80;;;;;;5108886;27;20038;-86
2022/04/11 12:10:17;;;;;;;3.78;2.30;;;15.70;95.20;;;;;;5132407;27;20043;-87
2022/04/11 12:12:46;;;;;;;5.95;2.60;;;15.70;94.80;;;;;;5131984;27;20042;-85
2022/04/11 12:15:13;;;;;;;4.80;2.70;;;15.90;94.50;;;;;;5113015;27;20043;-86
2022/04/11 12:17:47;;;;;;;6.05;2.53;;;16.10;95.10;;;;;;5131572;27;20462;-86
2022/04/11 12:20:14;;;;;;;;;;;16.30;94.70;;;;;;5133514;27;20381;-86
2022/04/11 12:22:58;;;;;;;4.13;2.58;;;16.40;92.70;;;;;;5130147;27;20308;-86
2022/04/11 12:25:32;;;;;;;4.72;2.83;;;16.50;94.30;;;;;;5129284;27;20042;-86
2022/04/11 12:28:12;;;;;;;;;;;16.60;92.00;;;;;;5116546;27;20084;-86
2022/04/11 12:30:41;;;;;;;5.03;2.90;;;16.20;84.90;;;;;;5132217;27;19919;-86
2022/04/11 12:33:07;;;;;;;6.97;2.72;;;16.50;93.20;;;;;;5112437;27;20031;-85
2022/04/11 12:35:33;;;;;;;4.75;2.72;;;16.60;92.90;;;;;;5132780;27;20095;-86
2022/04/11 12:38:00;;;;;;;3.75;2.70;;;16.50;92.70;;;;;;5128433;27;20495;-86
2022/04/11 12:40:43;;;;;;;5.50;2.70;;;16.60;93.20;;;;;;5129499;27;20047;-87
2022/04/11 12:43:09;;;;;;;5.35;2.95;;;16.50;92.70;;;;;;5115715;27;20030;-86
2022/04/11 12:45:34;;;;;;;7.07;2.80;;;16.60;93.20;;;;;;5116619;27;20023;-87
2022/04/11 12:48:05;;;;;;;5.10;2.92;;;16.60;93.20;;;;;;5133464;27;20030;-86
2022/04/11 12:50:33;;;;;;;5.28;2.72;;;16.60;92.20;;;;;;5112790;27;20049;-86
2022/04/11 12:52:59;;;;;;;6.10;3.00;;;16.60;92.10;;;;;;5120831;27;20042;-86
2022/04/11 12:55:27;;;;;;;5.68;3.10;;;16.60;92.10;;;;;;5111435;27;20079;-86
2022/04/11 12:58:08;;;;;;;4.55;2.83;;;16.70;91.30;;;;;;5129364;27;20043;-86
2022/04/11 13:00:36;;;;;;;6.35;2.85;;;16.70;90.60;;;;;;5128897;27;20084;-87
2022/04/11 13:03:03;;;;;;;6.85;3.05;;;16.70;89.30;;;;;;5128611;27;20106;-85